Nyk Aquarius — HPPZ — position and weather

sailwx.info

Track history (hours):
 
Tides and Currents Weather Stations Pressure Air Temp Water Temp Dewpoint Dewpoint Depression Visibility Wind Speed Wind Dir Waves Ship Positions

Nyk Aquarius

Last reported at 2018-Apr-13 18:47 UTC. Time now 2018-Apr-20 05:12 UTC.
Position N 38°44' W 124°07'.

Length 299.9 m; beam 40 m.

Type: Other ship. MMSI: 353295000.

Date/timePositionNaut miles runAvg speedWind from/ knotsBaromVisibWave heightAir tempDewpointWater temp
2018-Apr-13 18:47N 38°44' W 124°07'617.9
2018-Apr-13 18:28N 38°40' W 124°02'918.8
2018-Apr-13 18:00N 38°34' W 123°54'919.0
2018-Apr-13 17:30N 38°28' W 123°45'1817.9
2018-Apr-13 16:30N 38°16' W 123°29'1716.8
2018-Apr-13 15:30N 38°03' W 123°14'713.9
2018-Apr-13 15:00N 37°58' W 123°08'714.3
2018-Apr-13 14:30N 37°55' W 123°00'714.3
2018-Apr-13 14:00N 37°51' W 122°52'713.5
2018-Apr-13 13:30N 37°47' W 122°46'4 9.0
2018-Apr-13 13:00N 37°45' W 122°40'713.2
2018-Apr-13 12:30N 37°48' W 122°33'714.6
2018-Apr-13 12:00N 37°50' W 122°24'4 8.9
2018-Apr-13 11:30N 37°48' W 122°19'1 1.5
2018-Apr-13 11:00N 37°48' W 122°18'1 2.0
2018-Apr-13 10:30N 37°48' W 122°19'0 0.0
2018-Apr-13 09:57N 37°48' W 122°19'0 0.0
2018-Apr-13 09:30N 37°48' W 122°19'0 0.0
2018-Apr-13 08:58N 37°48' W 122°19'0 0.0
2018-Apr-13 08:28N 37°48' W 122°19'0 0.0
2018-Apr-13 08:00N 37°48' W 122°19'0 0.0
2018-Apr-13 07:30N 37°48' W 122°19'0 0.0
2018-Apr-13 07:00N 37°48' W 122°19'0 0.0
2018-Apr-13 06:31N 37°48' W 122°19'0 0.0
2018-Apr-13 06:00N 37°48' W 122°19'0 0.0
2018-Apr-13 05:30N 37°48' W 122°19'0 0.0
2018-Apr-13 05:01N 37°48' W 122°19'0 0.0
2018-Apr-13 04:30N 37°48' W 122°19'0 0.0
2018-Apr-13 04:00N 37°48' W 122°19'0 0.0
2018-Apr-13 03:30N 37°48' W 122°19'0 0.0
2018-Apr-13 03:00N 37°48' W 122°19'0 0.0
2018-Apr-13 02:27N 37°48' W 122°19'0 0.0
2018-Apr-13 02:00N 37°48' W 122°19'0 0.0
2018-Apr-13 01:30N 37°48' W 122°19'0 0.0
2018-Apr-13 00:57N 37°48' W 122°19'0 0.0
2018-Apr-13 00:30N 37°48' W 122°19'0 0.0
2018-Apr-13 00:00N 37°48' W 122°19'0 0.0
2018-Apr-12 23:31N 37°48' W 122°19'0 0.0
2018-Apr-12 22:57N 37°48' W 122°19'0 1.0
2018-Apr-12 22:30N 37°48' W 122°20'4 8.3
2018-Apr-12 22:00N 37°49' W 122°25'611.1
2018-Apr-12 21:30N 37°48' W 122°31'713.1
2018-Apr-12 21:00N 37°45' W 122°39'5 9.4
2018-Apr-12 20:30N 37°40' W 122°40'5 9.2
2018-Apr-12 20:00N 37°36' W 122°40'5 9.5
2018-Apr-12 19:30N 37°31' W 122°40'5 9.5
2018-Apr-12 19:01N 37°26' W 122°40'5 9.7
2018-Apr-12 18:31N 37°22' W 122°40'4 7.8
2018-Apr-12 18:00N 37°18' W 122°39'1 2.3
2018-Apr-12 17:30N 37°17' W 122°39'5 9.2
2018-Apr-12 17:01N 37°12' W 122°38'510.9
2018-Apr-12 16:31N 37°07' W 122°36'612.1
2018-Apr-12 16:00N 37°01' W 122°34'611.7
2018-Apr-12 15:30N 36°56' W 122°32'711.6
2018-Apr-12 14:57N 36°49' W 122°30'511.5
2018-Apr-12 14:29N 36°44' W 122°29'8611.0
2018-Apr-12 06:43N 35°27' W 121°43'212.0
2018-Apr-12 06:31N 35°25' W 121°42'611.7
2018-Apr-12 06:00N 35°20' W 121°38'611.7
2018-Apr-12 05:30N 35°15' W 121°33'612.5
2018-Apr-12 05:01N 35°10' W 121°29'612.3
2018-Apr-12 04:30N 35°05' W 121°25'612.2
2018-Apr-12 04:00N 35°00' W 121°21'612.3
2018-Apr-12 03:31N 34°55' W 121°16'612.3
2018-Apr-12 03:00N 34°50' W 121°12'612.1
2018-Apr-12 02:31N 34°45' W 121°08'611.8
2018-Apr-12 02:01N 34°40' W 121°04'611.6
2018-Apr-12 01:30N 34°35' W 120°60'611.4
2018-Apr-12 01:00N 34°31' W 120°56'610.9
2018-Apr-12 00:30N 34°26' W 120°52'611.8
2018-Apr-12 00:00N 34°25' W 120°45'712.1
2018-Apr-11 23:28N 34°23' W 120°38'612.2
2018-Apr-11 22:59N 34°21' W 120°31'612.0
2018-Apr-11 22:30N 34°20' W 120°24'611.9
2018-Apr-11 22:00N 34°18' W 120°17'611.8
2018-Apr-11 21:29N 34°16' W 120°10'712.7
2018-Apr-11 20:57N 34°15' W 120°02'712.6
2018-Apr-11 20:26N 34°13' W 119°54'512.4
2018-Apr-11 20:00N 34°12' W 119°48'612.1
2018-Apr-11 19:28N 34°10' W 119°40'612.4
2018-Apr-11 18:58N 34°08' W 119°33'612.3
2018-Apr-11 18:30N 34°07' W 119°26'612.0
2018-Apr-11 17:58N 34°05' W 119°19'612.1
2018-Apr-11 17:29N 34°03' W 119°13'612.9
2018-Apr-11 17:00N 33°60' W 119°06'611.6
2018-Apr-11 16:30N 33°57' W 118°60'510.8
2018-Apr-11 16:01N 33°54' W 118°54'611.2
2018-Apr-11 15:28N 33°51' W 118°48'511.4
2018-Apr-11 15:00N 33°49' W 118°43'611.4
2018-Apr-11 14:30N 33°46' W 118°37'611.5
2018-Apr-11 14:00N 33°43' W 118°31'611.2
2018-Apr-11 13:30N 33°40' W 118°25'510.7
2018-Apr-11 13:00N 33°38' W 118°19'5 9.2
2018-Apr-11 12:31N 33°41' W 118°15'3 6.0
2018-Apr-11 12:01N 33°44' W 118°16'1 2.9
2018-Apr-11 11:30N 33°45' W 118°16'0 0.8
2018-Apr-11 10:59N 33°45' W 118°16'0 0.0
2018-Apr-11 10:29N 33°45' W 118°16'0 0.0
2018-Apr-11 09:59N 33°45' W 118°16'0 0.0
2018-Apr-11 09:29N 33°45' W 118°16'0 0.0
2018-Apr-11 08:59N 33°45' W 118°16'0 0.0
2018-Apr-11 08:29N 33°45' W 118°16'0 0.0
2018-Apr-11 07:56N 33°45' W 118°16'0 0.0
2018-Apr-11 07:29N 33°45' W 118°16'0 0.0
2018-Apr-11 06:59N 33°45' W 118°16'0 0.0
2018-Apr-11 06:29N 33°45' W 118°16'0 0.0
2018-Apr-11 05:59N 33°45' W 118°16'0 0.0
2018-Apr-11 05:29N 33°45' W 118°16'0 0.0
2018-Apr-11 04:59N 33°45' W 118°16'0 0.0
2018-Apr-11 04:26N 33°45' W 118°16'0 0.0
2018-Apr-11 03:50N 33°45' W 118°16'0 0.0
2018-Apr-11 03:29N 33°45' W 118°16'0 0.0
2018-Apr-11 02:56N 33°45' W 118°16'0 0.0
2018-Apr-11 02:29N 33°45' W 118°16'0 0.0
2018-Apr-11 01:59N 33°45' W 118°16'0 0.0
2018-Apr-11 01:29N 33°45' W 118°16'0 0.0
2018-Apr-11 00:59N 33°45' W 118°16'0 0.0
2018-Apr-11 00:29N 33°45' W 118°16'0 0.0
2018-Apr-10 23:59N 33°45' W 118°16'0 0.0
2018-Apr-10 23:29N 33°45' W 118°16'0 0.0
2018-Apr-10 22:59N 33°45' W 118°16'0 0.0
2018-Apr-10 22:29N 33°45' W 118°16'0 0.0
2018-Apr-10 21:59N 33°45' W 118°16'0 0.0
2018-Apr-10 21:26N 33°45' W 118°16'0 0.0
2018-Apr-10 20:59N 33°45' W 118°16'0 0.0
2018-Apr-10 20:26N 33°45' W 118°16'0 0.0
2018-Apr-10 19:56N 33°45' W 118°16'0 0.0
2018-Apr-10 19:26N 33°45' W 118°16'0 0.0
2018-Apr-10 18:59N 33°45' W 118°16'0 0.0
2018-Apr-10 18:29N 33°45' W 118°16'0 0.0
2018-Apr-10 17:59N 33°45' W 118°16'0 0.0
2018-Apr-10 17:29N 33°45' W 118°16'0 0.0
2018-Apr-10 16:53N 33°45' W 118°16'0 0.0
2018-Apr-10 16:29N 33°45' W 118°16'0 0.0
2018-Apr-10 15:59N 33°45' W 118°16'0 0.0
2018-Apr-10 15:29N 33°45' W 118°16'0 0.0
2018-Apr-10 14:59N 33°45' W 118°16'0 0.0
2018-Apr-10 14:29N 33°45' W 118°16'0 0.0
2018-Apr-10 13:59N 33°45' W 118°16'0 0.0
2018-Apr-10 13:29N 33°45' W 118°16'0 0.0
2018-Apr-10 12:56N 33°45' W 118°16'0 0.0
2018-Apr-10 12:29N 33°45' W 118°16'0 0.0
2018-Apr-10 11:59N 33°45' W 118°16'0 0.0
2018-Apr-10 11:29N 33°45' W 118°16'0 0.0
2018-Apr-10 10:59N 33°45' W 118°16'0 0.0
2018-Apr-10 10:26N 33°45' W 118°16'0 0.0
2018-Apr-10 09:59N 33°45' W 118°16'0 0.0
2018-Apr-10 09:29N 33°45' W 118°16'0 0.0
2018-Apr-10 08:56N 33°45' W 118°16'0 0.0
2018-Apr-10 08:29N 33°45' W 118°16'0 0.0
2018-Apr-10 07:59N 33°45' W 118°16'0 0.0
2018-Apr-10 07:29N 33°45' W 118°16'0 0.0
2018-Apr-10 06:59N 33°45' W 118°16'0 0.0
2018-Apr-10 06:29N 33°45' W 118°16'0 0.0
2018-Apr-10 05:56N 33°45' W 118°16'0 0.0
2018-Apr-10 05:26N 33°45' W 118°16'0 0.0
2018-Apr-10 04:59N 33°45' W 118°16'0 0.0
2018-Apr-10 04:29N 33°45' W 118°16'0 0.0
2018-Apr-10 03:44N 33°45' W 118°16'0 0.0
2018-Apr-10 03:26N 33°45' W 118°16'0 0.0
2018-Apr-10 02:59N 33°45' W 118°16'0 0.0
2018-Apr-10 02:26N 33°45' W 118°16'0 0.0
2018-Apr-10 01:59N 33°45' W 118°16'0 0.0
2018-Apr-10 01:26N 33°45' W 118°16'0 0.0
2018-Apr-10 00:59N 33°45' W 118°16'0 0.0
2018-Apr-10 00:29N 33°45' W 118°16'0 0.0
2018-Apr-09 23:59N 33°45' W 118°16'0 0.0
2018-Apr-09 23:29N 33°45' W 118°16'0 0.0
2018-Apr-09 22:59N 33°45' W 118°16'0 0.0
2018-Apr-09 22:29N 33°45' W 118°16'0 0.0
2018-Apr-09 21:59N 33°45' W 118°16'0 0.0
2018-Apr-09 21:29N 33°45' W 118°16'0 0.0
2018-Apr-09 20:59N 33°45' W 118°16'0 0.0
2018-Apr-09 20:29N 33°45' W 118°16'0 0.0
2018-Apr-09 19:53N 33°45' W 118°16'0 0.0
2018-Apr-09 19:29N 33°45' W 118°16'0 0.0
2018-Apr-09 18:59N 33°45' W 118°16'0 0.0
2018-Apr-09 18:29N 33°45' W 118°16'0 0.0
2018-Apr-09 17:59N 33°45' W 118°16'0 0.0
2018-Apr-09 17:29N 33°45' W 118°16'0 0.0
2018-Apr-09 16:59N 33°45' W 118°16'0 0.0
2018-Apr-09 16:26N 33°45' W 118°16'0 0.0
2018-Apr-09 15:59N 33°45' W 118°16'0 0.0
2018-Apr-09 15:26N 33°45' W 118°16'0 0.0
2018-Apr-09 14:56N 33°45' W 118°16'0 0.0
2018-Apr-09 14:29N 33°45' W 118°16'0 0.0
2018-Apr-09 13:59N 33°45' W 118°16'0 0.0
2018-Apr-09 13:29N 33°45' W 118°16'0 0.0
2018-Apr-09 12:56N 33°45' W 118°16'0 0.0
2018-Apr-09 12:26N 33°45' W 118°16'0 0.0
2018-Apr-09 11:56N 33°45' W 118°16'0 0.0
2018-Apr-09 11:26N 33°45' W 118°16'0 0.0
2018-Apr-09 10:56N 33°45' W 118°16'0 0.0
2018-Apr-09 10:26N 33°45' W 118°16'0 0.0
2018-Apr-09 09:56N 33°45' W 118°16'0 0.0
2018-Apr-09 09:26N 33°45' W 118°16'0 0.0
2018-Apr-09 08:56N 33°45' W 118°16'0 0.0
2018-Apr-09 07:59N 33°45' W 118°16'0 0.0
2018-Apr-09 06:26N 33°45' W 118°16'0 0.0
2018-Apr-09 02:50N 33°45' W 118°16'0 0.0
2018-Apr-09 02:26N 33°45' W 118°16'0 0.0
2018-Apr-09 01:59N 33°45' W 118°16'0 0.0
2018-Apr-09 01:29N 33°45' W 118°16'0 0.0
2018-Apr-09 00:59N 33°45' W 118°16'0 0.0
2018-Apr-09 00:23N 33°45' W 118°16'0 0.0
2018-Apr-08 23:59N 33°45' W 118°16'0 0.0
2018-Apr-08 23:26N 33°45' W 118°16'0 0.0
2018-Apr-08 22:53N 33°45' W 118°16'0 0.0
2018-Apr-08 22:26N 33°45' W 118°16'0 0.0
2018-Apr-08 21:59N 33°45' W 118°16'0 0.0
2018-Apr-08 21:29N 33°45' W 118°16'0 0.0
2018-Apr-08 20:59N 33°45' W 118°16'0 0.0
2018-Apr-08 20:29N 33°45' W 118°16'0 0.0
2018-Apr-08 19:59N 33°45' W 118°16'0 0.0
2018-Apr-08 19:29N 33°45' W 118°16'0 0.0
2018-Apr-08 18:59N 33°45' W 118°16'0 0.0
2018-Apr-08 18:29N 33°45' W 118°16'0 0.0
2018-Apr-08 17:59N 33°45' W 118°16'0 0.0
2018-Apr-08 17:29N 33°45' W 118°16'0 0.0
2018-Apr-08 16:59N 33°45' W 118°16'0 0.0
2018-Apr-08 16:29N 33°45' W 118°16'0 0.0
2018-Apr-08 15:59N 33°45' W 118°16'0 0.0
2018-Apr-08 15:26N 33°45' W 118°16'0 0.0
2018-Apr-08 14:59N 33°45' W 118°16'0 0.0
2018-Apr-08 14:29N 33°45' W 118°16'0 0.0
2018-Apr-08 13:59N 33°45' W 118°16'0 0.0
2018-Apr-08 13:29N 33°45' W 118°16'0 0.5
2018-Apr-08 13:00N 33°45' W 118°16'2 3.7
2018-Apr-08 12:31N 33°44' W 118°16'4 8.1
2018-Apr-08 12:00N 33°40' W 118°14'3 6.2
2018-Apr-08 11:30N 33°37' W 118°14'3 5.4
2018-Apr-08 11:01N 33°36' W 118°17'4 7.4
2018-Apr-08 10:29N 33°37' W 118°22'3 6.7
2018-Apr-08 10:00N 33°38' W 118°25'4 7.0
2018-Apr-08 09:29N 33°40' W 118°29'5 9.1
2018-Apr-08 08:58N 33°42' W 118°34'4 9.3
2018-Apr-08 08:30N 33°45' W 118°38'5 9.6
2018-Apr-08 08:00N 33°47' W 118°44'5 9.2
2018-Apr-08 07:26N 33°49' W 118°49'4 9.3
2018-Apr-08 06:59N 33°51' W 118°53'5 9.5
2018-Apr-08 06:28N 33°54' W 118°58'610.3
2018-Apr-08 05:55N 33°57' W 119°04'512.8
2018-Apr-08 05:31N 33°59' W 119°10'713.3
2018-Apr-08 05:00N 34°02' W 119°17'713.7
2018-Apr-08 04:30N 34°04' W 119°25'713.4
2018-Apr-08 04:00N 34°06' W 119°33'813.3
2018-Apr-08 03:25N 34°08' W 119°42'613.7
2018-Apr-08 02:58N 34°10' W 119°49'814.4
2018-Apr-08 02:26N 34°12' W 119°58'614.2
2018-Apr-08 02:00N 34°14' W 120°05'714.3
2018-Apr-08 01:31N 34°15' W 120°13'914.5
2018-Apr-08 00:55N 34°18' W 120°23'613.5
2018-Apr-08 00:30N 34°19' W 120°30'713.1
2018-Apr-08 00:00N 34°21' W 120°37'713.4
2018-Apr-07 23:30N 34°23' W 120°45'714.2
2018-Apr-07 23:00N 34°25' W 120°54'713.8
2018-Apr-07 22:30N 34°27' W 121°01'714.0
2018-Apr-07 22:00N 34°29' W 121°09'713.9
2018-Apr-07 21:30N 34°32' W 121°17'713.8
2018-Apr-07 21:01N 34°34' W 121°25'713.8
2018-Apr-07 20:29N 34°37' W 121°33'613.4
2018-Apr-07 20:00N 34°39' W 121°41'713.5
2018-Apr-07 19:30N 34°42' W 121°48'713.8
2018-Apr-07 19:01N 34°44' W 121°56'814.4
2018-Apr-07 18:29N 34°47' W 122°05'  
Track history (hours):
 
Tides and Currents Weather Stations Pressure Air Temp Water Temp Dewpoint Dewpoint Depression Visibility Wind Speed Wind Dir Waves Ship Positions

Nyk Aquarius

Last reported at 2018-Apr-13 18:47 UTC. Time now 2018-Apr-20 05:12 UTC.
Position N 38°44' W 124°07'.

Length 299.9 m; beam 40 m.

Type: Other ship. MMSI: 353295000.

Date/timePositionNaut miles runAvg speedWind from/ knotsBaromVisibWave heightAir tempDewpointWater temp
2018-Apr-13 18:47N 38°44' W 124°07'617.9
2018-Apr-13 18:28N 38°40' W 124°02'918.8
2018-Apr-13 18:00N 38°34' W 123°54'919.0
2018-Apr-13 17:30N 38°28' W 123°45'1817.9
2018-Apr-13 16:30N 38°16' W 123°29'1716.8
2018-Apr-13 15:30N 38°03' W 123°14'713.9
2018-Apr-13 15:00N 37°58' W 123°08'714.3
2018-Apr-13 14:30N 37°55' W 123°00'714.3
2018-Apr-13 14:00N 37°51' W 122°52'713.5
2018-Apr-13 13:30N 37°47' W 122°46'4 9.0
2018-Apr-13 13:00N 37°45' W 122°40'713.2
2018-Apr-13 12:30N 37°48' W 122°33'714.6
2018-Apr-13 12:00N 37°50' W 122°24'4 8.9
2018-Apr-13 11:30N 37°48' W 122°19'1 1.5
2018-Apr-13 11:00N 37°48' W 122°18'1 2.0
2018-Apr-13 10:30N 37°48' W 122°19'0 0.0
2018-Apr-13 09:57N 37°48' W 122°19'0 0.0
2018-Apr-13 09:30N 37°48' W 122°19'0 0.0
2018-Apr-13 08:58N 37°48' W 122°19'0 0.0
2018-Apr-13 08:28N 37°48' W 122°19'0 0.0
2018-Apr-13 08:00N 37°48' W 122°19'0 0.0
2018-Apr-13 07:30N 37°48' W 122°19'0 0.0
2018-Apr-13 07:00N 37°48' W 122°19'0 0.0
2018-Apr-13 06:31N 37°48' W 122°19'0 0.0
2018-Apr-13 06:00N 37°48' W 122°19'0 0.0
2018-Apr-13 05:30N 37°48' W 122°19'0 0.0
2018-Apr-13 05:01N 37°48' W 122°19'0 0.0
2018-Apr-13 04:30N 37°48' W 122°19'0 0.0
2018-Apr-13 04:00N 37°48' W 122°19'0 0.0
2018-Apr-13 03:30N 37°48' W 122°19'0 0.0
2018-Apr-13 03:00N 37°48' W 122°19'0 0.0
2018-Apr-13 02:27N 37°48' W 122°19'0 0.0
2018-Apr-13 02:00N 37°48' W 122°19'0 0.0
2018-Apr-13 01:30N 37°48' W 122°19'0 0.0
2018-Apr-13 00:57N 37°48' W 122°19'0 0.0
2018-Apr-13 00:30N 37°48' W 122°19'0 0.0
2018-Apr-13 00:00N 37°48' W 122°19'0 0.0
2018-Apr-12 23:31N 37°48' W 122°19'0 0.0
2018-Apr-12 22:57N 37°48' W 122°19'0 1.0
2018-Apr-12 22:30N 37°48' W 122°20'4 8.3
2018-Apr-12 22:00N 37°49' W 122°25'611.1
2018-Apr-12 21:30N 37°48' W 122°31'713.1
2018-Apr-12 21:00N 37°45' W 122°39'5 9.4
2018-Apr-12 20:30N 37°40' W 122°40'5 9.2
2018-Apr-12 20:00N 37°36' W 122°40'5 9.5
2018-Apr-12 19:30N 37°31' W 122°40'5 9.5
2018-Apr-12 19:01N 37°26' W 122°40'5 9.7
2018-Apr-12 18:31N 37°22' W 122°40'4 7.8
2018-Apr-12 18:00N 37°18' W 122°39'1 2.3
2018-Apr-12 17:30N 37°17' W 122°39'5 9.2
2018-Apr-12 17:01N 37°12' W 122°38'510.9
2018-Apr-12 16:31N 37°07' W 122°36'612.1
2018-Apr-12 16:00N 37°01' W 122°34'611.7
2018-Apr-12 15:30N 36°56' W 122°32'711.6
2018-Apr-12 14:57N 36°49' W 122°30'511.5
2018-Apr-12 14:29N 36°44' W 122°29'8611.0
2018-Apr-12 06:43N 35°27' W 121°43'212.0
2018-Apr-12 06:31N 35°25' W 121°42'611.7
2018-Apr-12 06:00N 35°20' W 121°38'611.7
2018-Apr-12 05:30N 35°15' W 121°33'612.5
2018-Apr-12 05:01N 35°10' W 121°29'612.3
2018-Apr-12 04:30N 35°05' W 121°25'612.2
2018-Apr-12 04:00N 35°00' W 121°21'612.3
2018-Apr-12 03:31N 34°55' W 121°16'612.3
2018-Apr-12 03:00N 34°50' W 121°12'612.1
2018-Apr-12 02:31N 34°45' W 121°08'611.8
2018-Apr-12 02:01N 34°40' W 121°04'611.6
2018-Apr-12 01:30N 34°35' W 120°60'611.4
2018-Apr-12 01:00N 34°31' W 120°56'610.9
2018-Apr-12 00:30N 34°26' W 120°52'611.8
2018-Apr-12 00:00N 34°25' W 120°45'712.1
2018-Apr-11 23:28N 34°23' W 120°38'612.2
2018-Apr-11 22:59N 34°21' W 120°31'612.0
2018-Apr-11 22:30N 34°20' W 120°24'611.9
2018-Apr-11 22:00N 34°18' W 120°17'611.8
2018-Apr-11 21:29N 34°16' W 120°10'712.7
2018-Apr-11 20:57N 34°15' W 120°02'712.6
2018-Apr-11 20:26N 34°13' W 119°54'512.4
2018-Apr-11 20:00N 34°12' W 119°48'612.1
2018-Apr-11 19:28N 34°10' W 119°40'612.4
2018-Apr-11 18:58N 34°08' W 119°33'612.3
2018-Apr-11 18:30N 34°07' W 119°26'612.0
2018-Apr-11 17:58N 34°05' W 119°19'612.1
2018-Apr-11 17:29N 34°03' W 119°13'612.9
2018-Apr-11 17:00N 33°60' W 119°06'611.6
2018-Apr-11 16:30N 33°57' W 118°60'510.8
2018-Apr-11 16:01N 33°54' W 118°54'611.2
2018-Apr-11 15:28N 33°51' W 118°48'511.4
2018-Apr-11 15:00N 33°49' W 118°43'611.4
2018-Apr-11 14:30N 33°46' W 118°37'611.5
2018-Apr-11 14:00N 33°43' W 118°31'611.2
2018-Apr-11 13:30N 33°40' W 118°25'510.7
2018-Apr-11 13:00N 33°38' W 118°19'5 9.2
2018-Apr-11 12:31N 33°41' W 118°15'3 6.0
2018-Apr-11 12:01N 33°44' W 118°16'1 2.9
2018-Apr-11 11:30N 33°45' W 118°16'0 0.8
2018-Apr-11 10:59N 33°45' W 118°16'0 0.0
2018-Apr-11 10:29N 33°45' W 118°16'0 0.0
2018-Apr-11 09:59N 33°45' W 118°16'0 0.0
2018-Apr-11 09:29N 33°45' W 118°16'0 0.0
2018-Apr-11 08:59N 33°45' W 118°16'0 0.0
2018-Apr-11 08:29N 33°45' W 118°16'0 0.0
2018-Apr-11 07:56N 33°45' W 118°16'0 0.0
2018-Apr-11 07:29N 33°45' W 118°16'0 0.0
2018-Apr-11 06:59N 33°45' W 118°16'0 0.0
2018-Apr-11 06:29N 33°45' W 118°16'0 0.0
2018-Apr-11 05:59N 33°45' W 118°16'0 0.0
2018-Apr-11 05:29N 33°45' W 118°16'0 0.0
2018-Apr-11 04:59N 33°45' W 118°16'0 0.0
2018-Apr-11 04:26N 33°45' W 118°16'0 0.0
2018-Apr-11 03:50N 33°45' W 118°16'0 0.0
2018-Apr-11 03:29N 33°45' W 118°16'0 0.0
2018-Apr-11 02:56N 33°45' W 118°16'0 0.0
2018-Apr-11 02:29N 33°45' W 118°16'0 0.0
2018-Apr-11 01:59N 33°45' W 118°16'0 0.0
2018-Apr-11 01:29N 33°45' W 118°16'0 0.0
2018-Apr-11 00:59N 33°45' W 118°16'0 0.0
2018-Apr-11 00:29N 33°45' W 118°16'0 0.0
2018-Apr-10 23:59N 33°45' W 118°16'0 0.0
2018-Apr-10 23:29N 33°45' W 118°16'0 0.0
2018-Apr-10 22:59N 33°45' W 118°16'0 0.0
2018-Apr-10 22:29N 33°45' W 118°16'0 0.0
2018-Apr-10 21:59N 33°45' W 118°16'0 0.0
2018-Apr-10 21:26N 33°45' W 118°16'0 0.0
2018-Apr-10 20:59N 33°45' W 118°16'0 0.0
2018-Apr-10 20:26N 33°45' W 118°16'0 0.0
2018-Apr-10 19:56N 33°45' W 118°16'0 0.0
2018-Apr-10 19:26N 33°45' W 118°16'0 0.0
2018-Apr-10 18:59N 33°45' W 118°16'0 0.0
2018-Apr-10 18:29N 33°45' W 118°16'0 0.0
2018-Apr-10 17:59N 33°45' W 118°16'0 0.0
2018-Apr-10 17:29N 33°45' W 118°16'0 0.0
2018-Apr-10 16:53N 33°45' W 118°16'0 0.0
2018-Apr-10 16:29N 33°45' W 118°16'0 0.0
2018-Apr-10 15:59N 33°45' W 118°16'0 0.0
2018-Apr-10 15:29N 33°45' W 118°16'0 0.0
2018-Apr-10 14:59N 33°45' W 118°16'0 0.0
2018-Apr-10 14:29N 33°45' W 118°16'0 0.0
2018-Apr-10 13:59N 33°45' W 118°16'0 0.0
2018-Apr-10 13:29N 33°45' W 118°16'0 0.0
2018-Apr-10 12:56N 33°45' W 118°16'0 0.0
2018-Apr-10 12:29N 33°45' W 118°16'0 0.0
2018-Apr-10 11:59N 33°45' W 118°16'0 0.0
2018-Apr-10 11:29N 33°45' W 118°16'0 0.0
2018-Apr-10 10:59N 33°45' W 118°16'0 0.0
2018-Apr-10 10:26N 33°45' W 118°16'0 0.0
2018-Apr-10 09:59N 33°45' W 118°16'0 0.0
2018-Apr-10 09:29N 33°45' W 118°16'0 0.0
2018-Apr-10 08:56N 33°45' W 118°16'0 0.0
2018-Apr-10 08:29N 33°45' W 118°16'0 0.0
2018-Apr-10 07:59N 33°45' W 118°16'0 0.0
2018-Apr-10 07:29N 33°45' W 118°16'0 0.0
2018-Apr-10 06:59N 33°45' W 118°16'0 0.0
2018-Apr-10 06:29N 33°45' W 118°16'0 0.0
2018-Apr-10 05:56N 33°45' W 118°16'0 0.0
2018-Apr-10 05:26N 33°45' W 118°16'0 0.0
2018-Apr-10 04:59N 33°45' W 118°16'0 0.0
2018-Apr-10 04:29N 33°45' W 118°16'0 0.0
2018-Apr-10 03:44N 33°45' W 118°16'0 0.0
2018-Apr-10 03:26N 33°45' W 118°16'0 0.0
2018-Apr-10 02:59N 33°45' W 118°16'0 0.0
2018-Apr-10 02:26N 33°45' W 118°16'0 0.0
2018-Apr-10 01:59N 33°45' W 118°16'0 0.0
2018-Apr-10 01:26N 33°45' W 118°16'0 0.0
2018-Apr-10 00:59N 33°45' W 118°16'0 0.0
2018-Apr-10 00:29N 33°45' W 118°16'0 0.0
2018-Apr-09 23:59N 33°45' W 118°16'0 0.0
2018-Apr-09 23:29N 33°45' W 118°16'0 0.0
2018-Apr-09 22:59N 33°45' W 118°16'0 0.0
2018-Apr-09 22:29N 33°45' W 118°16'0 0.0
2018-Apr-09 21:59N 33°45' W 118°16'0 0.0
2018-Apr-09 21:29N 33°45' W 118°16'0 0.0
2018-Apr-09 20:59N 33°45' W 118°16'0 0.0
2018-Apr-09 20:29N 33°45' W 118°16'0 0.0
2018-Apr-09 19:53N 33°45' W 118°16'0 0.0
2018-Apr-09 19:29N 33°45' W 118°16'0 0.0
2018-Apr-09 18:59N 33°45' W 118°16'0 0.0
2018-Apr-09 18:29N 33°45' W 118°16'0 0.0
2018-Apr-09 17:59N 33°45' W 118°16'0 0.0
2018-Apr-09 17:29N 33°45' W 118°16'0 0.0
2018-Apr-09 16:59N 33°45' W 118°16'0 0.0
2018-Apr-09 16:26N 33°45' W 118°16'0 0.0
2018-Apr-09 15:59N 33°45' W 118°16'0 0.0
2018-Apr-09 15:26N 33°45' W 118°16'0 0.0
2018-Apr-09 14:56N 33°45' W 118°16'0 0.0
2018-Apr-09 14:29N 33°45' W 118°16'0 0.0
2018-Apr-09 13:59N 33°45' W 118°16'0 0.0
2018-Apr-09 13:29N 33°45' W 118°16'0 0.0
2018-Apr-09 12:56N 33°45' W 118°16'0 0.0
2018-Apr-09 12:26N 33°45' W 118°16'0 0.0
2018-Apr-09 11:56N 33°45' W 118°16'0 0.0
2018-Apr-09 11:26N 33°45' W 118°16'0 0.0
2018-Apr-09 10:56N 33°45' W 118°16'0 0.0
2018-Apr-09 10:26N 33°45' W 118°16'0 0.0
2018-Apr-09 09:56N 33°45' W 118°16'0 0.0
2018-Apr-09 09:26N 33°45' W 118°16'0 0.0
2018-Apr-09 08:56N 33°45' W 118°16'0 0.0
2018-Apr-09 07:59N 33°45' W 118°16'0 0.0
2018-Apr-09 06:26N 33°45' W 118°16'0 0.0
2018-Apr-09 02:50N 33°45' W 118°16'0 0.0
2018-Apr-09 02:26N 33°45' W 118°16'0 0.0
2018-Apr-09 01:59N 33°45' W 118°16'0 0.0
2018-Apr-09 01:29N 33°45' W 118°16'0 0.0
2018-Apr-09 00:59N 33°45' W 118°16'0 0.0
2018-Apr-09 00:23N 33°45' W 118°16'0 0.0
2018-Apr-08 23:59N 33°45' W 118°16'0 0.0
2018-Apr-08 23:26N 33°45' W 118°16'0 0.0
2018-Apr-08 22:53N 33°45' W 118°16'0 0.0
2018-Apr-08 22:26N 33°45' W 118°16'0 0.0
2018-Apr-08 21:59N 33°45' W 118°16'0 0.0
2018-Apr-08 21:29N 33°45' W 118°16'0 0.0
2018-Apr-08 20:59N 33°45' W 118°16'0 0.0
2018-Apr-08 20:29N 33°45' W 118°16'0 0.0
2018-Apr-08 19:59N 33°45' W 118°16'0 0.0
2018-Apr-08 19:29N 33°45' W 118°16'0 0.0
2018-Apr-08 18:59N 33°45' W 118°16'0 0.0
2018-Apr-08 18:29N 33°45' W 118°16'0 0.0
2018-Apr-08 17:59N 33°45' W 118°16'0 0.0
2018-Apr-08 17:29N 33°45' W 118°16'0 0.0
2018-Apr-08 16:59N 33°45' W 118°16'0 0.0
2018-Apr-08 16:29N 33°45' W 118°16'0 0.0
2018-Apr-08 15:59N 33°45' W 118°16'0 0.0
2018-Apr-08 15:26N 33°45' W 118°16'0 0.0
2018-Apr-08 14:59N 33°45' W 118°16'0 0.0
2018-Apr-08 14:29N 33°45' W 118°16'0 0.0
2018-Apr-08 13:59N 33°45' W 118°16'0 0.0
2018-Apr-08 13:29N 33°45' W 118°16'0 0.5
2018-Apr-08 13:00N 33°45' W 118°16'2 3.7
2018-Apr-08 12:31N 33°44' W 118°16'4 8.1
2018-Apr-08 12:00N 33°40' W 118°14'3 6.2
2018-Apr-08 11:30N 33°37' W 118°14'3 5.4
2018-Apr-08 11:01N 33°36' W 118°17'4 7.4
2018-Apr-08 10:29N 33°37' W 118°22'3 6.7
2018-Apr-08 10:00N 33°38' W 118°25'4 7.0
2018-Apr-08 09:29N 33°40' W 118°29'5 9.1
2018-Apr-08 08:58N 33°42' W 118°34'4 9.3
2018-Apr-08 08:30N 33°45' W 118°38'5 9.6
2018-Apr-08 08:00N 33°47' W 118°44'5 9.2
2018-Apr-08 07:26N 33°49' W 118°49'4 9.3
2018-Apr-08 06:59N 33°51' W 118°53'5 9.5
2018-Apr-08 06:28N 33°54' W 118°58'610.3
2018-Apr-08 05:55N 33°57' W 119°04'512.8
2018-Apr-08 05:31N 33°59' W 119°10'713.3
2018-Apr-08 05:00N 34°02' W 119°17'713.7
2018-Apr-08 04:30N 34°04' W 119°25'713.4
2018-Apr-08 04:00N 34°06' W 119°33'813.3
2018-Apr-08 03:25N 34°08' W 119°42'613.7
2018-Apr-08 02:58N 34°10' W 119°49'814.4
2018-Apr-08 02:26N 34°12' W 119°58'614.2
2018-Apr-08 02:00N 34°14' W 120°05'714.3
2018-Apr-08 01:31N 34°15' W 120°13'914.5
2018-Apr-08 00:55N 34°18' W 120°23'613.5
2018-Apr-08 00:30N 34°19' W 120°30'713.1
2018-Apr-08 00:00N 34°21' W 120°37'713.4
2018-Apr-07 23:30N 34°23' W 120°45'714.2
2018-Apr-07 23:00N 34°25' W 120°54'713.8
2018-Apr-07 22:30N 34°27' W 121°01'714.0
2018-Apr-07 22:00N 34°29' W 121°09'713.9
2018-Apr-07 21:30N 34°32' W 121°17'713.8
2018-Apr-07 21:01N 34°34' W 121°25'713.8
2018-Apr-07 20:29N 34°37' W 121°33'613.4
2018-Apr-07 20:00N 34°39' W 121°41'713.5
2018-Apr-07 19:30N 34°42' W 121°48'713.8
2018-Apr-07 19:01N 34°44' W 121°56'814.4
2018-Apr-07 18:29N 34°47' W 122°05'  

Dump ship's entire track history